createdAt,value
2018-06-01T00:00:58.416Z,953.27
2018-06-01T00:01:58.414Z,953.28
2018-06-01T00:02:58.409Z,953.26
2018-06-01T00:03:58.407Z,953.24
2018-06-01T00:04:58.418Z,953.21
2018-06-01T00:05:58.402Z,953.2
2018-06-01T00:06:58.398Z,953.2
2018-06-01T00:07:58.394Z,953.19
2018-06-01T00:08:58.392Z,953.17
2018-06-01T00:09:58.388Z,953.17
2018-06-01T00:10:58.384Z,953.18
2018-06-01T00:11:58.382Z,953.18
2018-06-01T00:12:58.380Z,953.18
2018-06-01T00:13:58.375Z,953.17
2018-06-01T00:14:58.371Z,953.23
2018-06-01T00:15:58.369Z,953.24
2018-06-01T00:16:58.368Z,953.24
2018-06-01T00:17:58.362Z,953.26
2018-06-01T00:18:58.360Z,953.27
2018-06-01T00:19:58.356Z,953.26
2018-06-01T00:20:58.353Z,953.27
2018-06-01T00:21:58.350Z,953.27
2018-06-01T00:22:58.346Z,953.3
2018-06-01T00:23:58.345Z,953.31
2018-06-01T00:24:58.340Z,953.3
2018-06-01T00:25:58.337Z,953.27
2018-06-01T00:26:58.332Z,953.27
2018-06-01T00:27:58.330Z,953.29
2018-06-01T00:28:58.326Z,953.29
2018-06-01T00:29:58.323Z,953.29
2018-06-01T00:30:58.319Z,953.3
2018-06-01T00:31:58.317Z,953.34
2018-06-01T00:32:58.313Z,953.37
2018-06-01T00:33:58.309Z,953.38
2018-06-01T00:34:58.306Z,953.42
2018-06-01T00:35:58.303Z,953.41
2018-06-01T00:36:58.303Z,953.47
2018-06-01T00:37:58.295Z,953.48
2018-06-01T00:38:58.299Z,953.5
2018-06-01T00:39:58.290Z,953.55
2018-06-01T00:40:58.284Z,953.54
2018-06-01T00:41:58.283Z,953.54
2018-06-01T00:42:58.279Z,953.55
2018-06-01T00:43:58.280Z,953.55
2018-06-01T00:44:58.271Z,953.61
2018-06-01T00:45:58.268Z,953.6
2018-06-01T00:46:58.264Z,953.6
2018-06-01T00:47:58.260Z,953.6
2018-06-01T00:48:58.255Z,953.61
2018-06-01T00:49:58.252Z,953.6
2018-06-01T00:50:58.249Z,953.58
2018-06-01T00:51:58.247Z,953.59
2018-06-01T00:52:58.242Z,953.56
2018-06-01T00:53:58.239Z,953.56
2018-06-01T00:54:58.235Z,953.55
2018-06-01T00:55:58.230Z,953.57
2018-06-01T00:56:58.226Z,953.56
2018-06-01T00:57:58.224Z,953.59
2018-06-01T00:58:58.219Z,953.61
2018-06-01T00:59:58.215Z,953.59
2018-06-01T01:00:58.213Z,953.61
2018-06-01T01:01:58.209Z,953.67
2018-06-01T01:02:58.205Z,953.65
2018-06-01T01:03:58.201Z,953.67
2018-06-01T01:04:58.197Z,953.72
2018-06-01T01:05:58.194Z,953.72
2018-06-01T01:06:58.202Z,953.74
2018-06-01T01:07:58.187Z,953.76
2018-06-01T01:08:58.185Z,953.76
2018-06-01T01:09:58.180Z,953.77
2018-06-01T01:10:58.180Z,953.8
2018-06-01T01:11:58.173Z,953.78
2018-06-01T01:12:58.167Z,953.81
2018-06-01T01:13:58.164Z,953.82
2018-06-01T01:14:58.162Z,953.81
2018-06-01T01:15:58.158Z,953.83
2018-06-01T01:16:58.153Z,953.82
2018-06-01T01:17:58.149Z,953.83
2018-06-01T01:18:58.145Z,953.9
2018-06-01T01:19:58.144Z,953.86
2018-06-01T01:20:58.139Z,953.91
2018-06-01T01:21:58.135Z,953.89
2018-06-01T01:22:58.131Z,953.88
2018-06-01T01:23:58.129Z,953.88
2018-06-01T01:24:58.123Z,953.89
2018-06-01T01:25:58.119Z,953.89
2018-06-01T01:26:58.116Z,953.89
2018-06-01T01:27:58.113Z,953.87
2018-06-01T01:28:58.135Z,953.84
2018-06-01T01:29:58.107Z,953.85
2018-06-01T01:30:58.102Z,953.84
2018-06-01T01:31:58.097Z,953.86
2018-06-01T01:32:58.093Z,953.83
2018-06-01T01:33:58.091Z,953.84
2018-06-01T01:34:58.088Z,953.84
2018-06-01T01:35:58.083Z,953.84
2018-06-01T01:36:58.079Z,953.82
2018-06-01T01:37:58.077Z,953.86
2018-06-01T01:38:58.074Z,953.82
2018-06-01T01:39:58.067Z,953.81
2018-06-01T01:40:58.065Z,953.81
2018-06-01T01:41:58.060Z,953.82
2018-06-01T01:42:58.059Z,953.8
2018-06-01T01:43:58.053Z,953.81
2018-06-01T01:44:58.051Z,953.82
2018-06-01T01:45:58.047Z,953.8
2018-06-01T01:46:58.046Z,953.8
2018-06-01T01:47:58.038Z,953.79
2018-06-01T01:48:58.035Z,953.79
2018-06-01T01:49:58.029Z,953.76
2018-06-01T01:50:58.025Z,953.74
2018-06-01T01:51:58.042Z,953.75
2018-06-01T01:52:58.020Z,953.72
2018-06-01T01:53:58.017Z,953.73
2018-06-01T01:54:58.017Z,953.7
2018-06-01T01:55:58.010Z,953.67
2018-06-01T01:56:58.007Z,953.65
2018-06-01T01:57:58.003Z,953.7
2018-06-01T01:58:57.997Z,953.63
2018-06-01T01:59:57.997Z,953.61
2018-06-01T02:00:57.992Z,953.62
2018-06-01T02:01:57.988Z,953.59
2018-06-01T02:02:57.984Z,953.54
2018-06-01T02:03:57.983Z,953.53
2018-06-01T02:04:57.977Z,953.58
2018-06-01T02:05:57.974Z,953.52
2018-06-01T02:06:57.971Z,953.53
2018-06-01T02:07:57.966Z,953.49
2018-06-01T02:08:57.964Z,953.54
2018-06-01T02:09:57.968Z,953.48
2018-06-01T02:10:57.958Z,953.47
2018-06-01T02:11:57.954Z,953.49
2018-06-01T02:12:57.949Z,953.48
2018-06-01T02:13:57.947Z,953.46
2018-06-01T02:14:57.941Z,953.48
2018-06-01T02:15:57.938Z,953.45
2018-06-01T02:16:57.934Z,953.43
2018-06-01T02:17:57.932Z,953.44
2018-06-01T02:18:57.926Z,953.45
2018-06-01T02:19:57.940Z,953.44
2018-06-01T02:20:57.919Z,953.46
2018-06-01T02:21:57.915Z,953.41
2018-06-01T02:22:57.912Z,953.42
2018-06-01T02:23:57.908Z,953.48
2018-06-01T02:24:57.906Z,953.43
2018-06-01T02:25:57.901Z,953.42
2018-06-01T02:26:57.896Z,953.42
2018-06-01T02:27:57.895Z,953.46
2018-06-01T02:28:57.891Z,953.44
2018-06-01T02:29:57.887Z,953.38
2018-06-01T02:30:57.883Z,953.39
2018-06-01T02:31:57.880Z,953.36
2018-06-01T02:32:57.877Z,953.4
2018-06-01T02:33:57.873Z,953.34
2018-06-01T02:34:57.869Z,953.36
2018-06-01T02:35:57.867Z,953.33
2018-06-01T02:36:57.865Z,953.32
2018-06-01T02:37:57.858Z,953.33
2018-06-01T02:38:57.854Z,953.32
2018-06-01T02:39:57.851Z,953.26
2018-06-01T02:40:57.847Z,953.3
2018-06-01T02:41:57.842Z,953.23
2018-06-01T02:42:57.842Z,953.3
2018-06-01T02:43:57.874Z,953.28
2018-06-01T02:44:57.831Z,953.33
2018-06-01T02:45:57.829Z,953.36
2018-06-01T02:46:57.825Z,953.38
2018-06-01T02:47:57.821Z,953.4
2018-06-01T02:48:57.818Z,953.42
2018-06-01T02:49:57.813Z,953.41
2018-06-01T02:50:57.813Z,953.41
2018-06-01T02:51:57.818Z,953.41
2018-06-01T02:52:57.802Z,953.45
2018-06-01T02:53:57.799Z,953.44
2018-06-01T02:54:57.795Z,953.51
2018-06-01T02:55:57.789Z,953.48
2018-06-01T02:56:57.787Z,953.51
2018-06-01T02:57:57.784Z,953.57
2018-06-01T02:58:57.779Z,953.65
2018-06-01T02:59:57.806Z,953.67
2018-06-01T03:00:57.773Z,953.71
2018-06-01T03:01:57.769Z,953.77
2018-06-01T03:02:57.765Z,953.87
2018-06-01T03:03:57.761Z,954.01
2018-06-01T03:04:57.759Z,954.19
2018-06-01T03:05:57.756Z,954.26
2018-06-01T03:06:57.751Z,954.31
2018-06-01T03:07:57.749Z,954.36
2018-06-01T03:08:57.743Z,954.35
2018-06-01T03:09:57.745Z,954.29
2018-06-01T03:10:57.738Z,954.26
2018-06-01T03:11:57.733Z,954.19
2018-06-01T03:12:57.730Z,954.2
2018-06-01T03:13:57.729Z,954.35
2018-06-01T03:14:57.722Z,954.34
2018-06-01T03:15:57.720Z,954.37
2018-06-01T03:16:57.716Z,954.4
2018-06-01T03:17:57.731Z,954.38
2018-06-01T03:18:57.708Z,954.39
2018-06-01T03:19:57.704Z,954.4
2018-06-01T03:20:57.700Z,954.42
2018-06-01T03:21:57.700Z,954.38
2018-06-01T03:22:57.693Z,954.39
2018-06-01T03:23:57.689Z,954.4
2018-06-01T03:24:57.684Z,954.4
2018-06-01T03:25:57.683Z,954.41
2018-06-01T03:26:57.679Z,954.4
2018-06-01T03:27:57.676Z,954.42
2018-06-01T03:28:57.670Z,954.43
2018-06-01T03:29:57.667Z,954.4
2018-06-01T03:30:57.696Z,954.41
2018-06-01T03:31:57.662Z,954.41
2018-06-01T03:32:57.658Z,954.42
2018-06-01T03:33:57.655Z,954.39
2018-06-01T03:34:57.665Z,954.43
2018-06-01T03:35:57.647Z,954.45
2018-06-01T03:36:57.644Z,954.44
2018-06-01T03:37:57.639Z,954.42
2018-06-01T03:38:57.640Z,954.4
2018-06-01T03:39:57.636Z,954.37
2018-06-01T03:40:57.630Z,954.41
2018-06-01T03:41:57.625Z,954.34
2018-06-01T03:42:57.622Z,954.32
2018-06-01T03:43:57.618Z,954.37
2018-06-01T03:44:57.615Z,954.34
2018-06-01T03:45:57.611Z,954.39
2018-06-01T03:46:57.607Z,954.38
2018-06-01T03:47:57.604Z,954.41
2018-06-01T03:48:57.605Z,954.41
2018-06-01T03:49:57.598Z,954.41
2018-06-01T03:50:57.594Z,954.39
2018-06-01T03:51:57.592Z,954.39
2018-06-01T03:52:57.588Z,954.39
2018-06-01T03:53:57.584Z,954.41
2018-06-01T03:54:57.581Z,954.43
2018-06-01T03:55:57.578Z,954.47
2018-06-01T03:56:57.595Z,954.4
2018-06-01T03:57:57.589Z,954.48
2018-06-01T03:58:57.569Z,954.46
2018-06-01T03:59:57.566Z,954.44
2018-06-01T04:00:57.564Z,954.4
2018-06-01T04:01:57.559Z,954.4
2018-06-01T04:02:57.612Z,954.39
2018-06-01T04:03:57.556Z,954.35
2018-06-01T04:04:57.551Z,954.35
2018-06-01T04:05:57.547Z,954.39
2018-06-01T04:06:57.547Z,954.35
2018-06-01T04:07:57.543Z,954.37
2018-06-01T04:08:57.538Z,954.41
2018-06-01T04:09:57.537Z,954.46
2018-06-01T04:10:57.536Z,954.5
2018-06-01T04:11:57.552Z,954.51
2018-06-01T04:12:57.530Z,954.56
2018-06-01T04:13:57.526Z,954.56
2018-06-01T04:14:57.526Z,954.53
2018-06-01T04:15:57.522Z,954.52
2018-06-01T04:16:57.567Z,954.47
2018-06-01T04:17:57.522Z,954.5
2018-06-01T04:18:57.517Z,954.5
2018-06-01T04:19:57.512Z,954.52
2018-06-01T04:20:57.512Z,954.57
2018-06-01T04:21:57.508Z,954.62
2018-06-01T04:22:57.512Z,954.66
2018-06-01T04:23:57.503Z,954.66
2018-06-01T04:24:57.502Z,954.67
2018-06-01T04:25:57.500Z,954.68
2018-06-01T04:26:57.498Z,954.67
2018-06-01T04:27:57.495Z,954.65
2018-06-01T04:28:57.493Z,954.62
2018-06-01T04:29:57.491Z,954.66
2018-06-01T04:30:57.488Z,954.65
2018-06-01T04:31:57.486Z,954.68
2018-06-01T04:32:57.484Z,954.64
2018-06-01T04:33:57.483Z,954.69
2018-06-01T04:34:57.481Z,954.69
2018-06-01T04:35:57.478Z,954.78
2018-06-01T04:36:57.476Z,954.77
2018-06-01T04:37:57.475Z,954.76
2018-06-01T04:38:57.473Z,954.77
2018-06-01T04:39:57.471Z,954.74
2018-06-01T04:40:57.469Z,954.71
2018-06-01T04:41:57.467Z,954.69
2018-06-01T04:42:57.467Z,954.68
2018-06-01T04:43:57.473Z,954.68
2018-06-01T04:44:57.462Z,954.68
2018-06-01T04:45:57.459Z,954.7
2018-06-01T04:46:57.457Z,954.7
2018-06-01T04:47:57.456Z,954.75
2018-06-01T04:48:57.452Z,954.75
2018-06-01T04:49:57.450Z,954.73
2018-06-01T04:50:57.449Z,954.72
2018-06-01T04:51:57.445Z,954.7
2018-06-01T04:52:57.448Z,954.72
2018-06-01T04:53:57.444Z,954.67
2018-06-01T04:54:57.440Z,954.66
2018-06-01T04:55:57.439Z,954.69
2018-06-01T04:56:57.435Z,954.69
2018-06-01T04:57:57.434Z,954.68
2018-06-01T04:58:57.434Z,954.71
2018-06-01T04:59:57.429Z,954.71
2018-06-01T05:00:57.427Z,954.72
2018-06-01T05:01:57.426Z,954.71
2018-06-01T05:02:57.425Z,954.71
2018-06-01T05:03:57.423Z,954.63
2018-06-01T05:04:57.420Z,954.65
2018-06-01T05:05:57.419Z,954.66
2018-06-01T05:06:57.415Z,954.69
2018-06-01T05:07:57.415Z,954.73
2018-06-01T05:08:57.411Z,954.71
2018-06-01T05:09:57.412Z,954.67
2018-06-01T05:10:57.407Z,954.67
2018-06-01T05:11:57.406Z,954.63
2018-06-01T05:12:57.404Z,954.65
2018-06-01T05:13:57.422Z,954.64
2018-06-01T05:14:57.406Z,954.67
2018-06-01T05:15:57.398Z,954.71
2018-06-01T05:16:57.395Z,954.75
2018-06-01T05:17:57.394Z,954.74
2018-06-01T05:18:57.392Z,954.71
2018-06-01T05:19:57.390Z,954.75
2018-06-01T05:20:57.387Z,954.76
2018-06-01T05:21:57.386Z,954.76
2018-06-01T05:22:57.383Z,954.8
2018-06-01T05:23:57.384Z,954.82
2018-06-01T05:24:57.379Z,954.87
2018-06-01T05:25:57.375Z,954.87
2018-06-01T05:26:57.375Z,954.88
2018-06-01T05:27:57.373Z,954.91
2018-06-01T05:28:57.371Z,954.95
2018-06-01T05:29:57.367Z,954.91
2018-06-01T05:30:57.366Z,954.95
2018-06-01T05:31:57.364Z,954.96
2018-06-01T05:32:57.361Z,954.92
2018-06-01T05:33:57.360Z,954.89
2018-06-01T05:34:57.357Z,954.91
2018-06-01T05:35:57.356Z,954.93
2018-06-01T05:36:57.353Z,954.95
2018-06-01T05:37:57.352Z,954.95
2018-06-01T05:38:57.348Z,954.97
2018-06-01T05:39:57.346Z,955
2018-06-01T05:40:57.344Z,954.98
2018-06-01T05:41:57.343Z,954.97
2018-06-01T05:42:57.339Z,954.97
2018-06-01T05:43:57.337Z,954.93
2018-06-01T05:44:57.335Z,954.96
2018-06-01T05:45:57.332Z,954.93
2018-06-01T05:46:57.331Z,954.98
2018-06-01T05:47:57.327Z,955.05
2018-06-01T05:48:57.325Z,955.08
2018-06-01T05:49:57.325Z,955.11
2018-06-01T05:50:57.321Z,955.1
2018-06-01T05:51:57.318Z,955.14
2018-06-01T05:52:57.317Z,955.17
2018-06-01T05:53:57.328Z,955.22
2018-06-01T05:54:57.311Z,955.28
2018-06-01T05:55:57.309Z,955.38
2018-06-01T05:56:57.306Z,955.41
2018-06-01T05:57:57.305Z,955.5
2018-06-01T05:58:57.302Z,955.46
2018-06-01T05:59:57.303Z,955.45
2018-06-01T06:00:57.296Z,955.44
2018-06-01T06:01:57.295Z,955.41
2018-06-01T06:02:57.293Z,955.41
2018-06-01T06:03:57.290Z,955.4
2018-06-01T06:04:57.287Z,955.48
2018-06-01T06:05:57.283Z,955.49
2018-06-01T06:06:57.284Z,955.52
2018-06-01T06:07:57.280Z,955.52
2018-06-01T06:08:57.277Z,955.55
2018-06-01T06:09:57.294Z,955.52
2018-06-01T06:10:57.271Z,955.49
2018-06-01T06:11:57.271Z,955.5
2018-06-01T06:12:57.267Z,955.44
2018-06-01T06:13:57.486Z,955.4
2018-06-01T06:14:57.262Z,955.4
2018-06-01T06:15:57.259Z,955.45
2018-06-01T06:16:57.256Z,955.49
2018-06-01T06:17:57.270Z,955.52
2018-06-01T06:18:57.252Z,955.56
2018-06-01T06:19:57.256Z,955.59
2018-06-01T06:20:57.245Z,955.53
2018-06-01T06:21:57.241Z,955.57
2018-06-01T06:22:57.239Z,955.54
2018-06-01T06:23:57.237Z,955.52
2018-06-01T06:24:57.233Z,955.48
2018-06-01T06:25:57.231Z,955.47
2018-06-01T06:26:57.229Z,955.52
2018-06-01T06:27:57.224Z,955.51
2018-06-01T06:28:57.225Z,955.6
2018-06-01T06:29:57.224Z,955.62
2018-06-01T06:30:57.220Z,955.55
2018-06-01T06:31:57.215Z,955.53
2018-06-01T06:32:57.214Z,955.46
2018-06-01T06:33:57.209Z,955.47
2018-06-01T06:34:57.209Z,955.46
2018-06-01T06:35:57.206Z,955.45
2018-06-01T06:36:57.204Z,955.46
2018-06-01T06:37:57.203Z,955.49
2018-06-01T06:38:57.199Z,955.45
2018-06-01T06:39:57.195Z,955.4
2018-06-01T06:40:57.195Z,955.39
2018-06-01T06:41:57.197Z,955.3
2018-06-01T06:42:57.190Z,955.33
2018-06-01T06:43:57.186Z,955.36
2018-06-01T06:44:57.185Z,955.43
2018-06-01T06:45:57.182Z,955.44
2018-06-01T06:46:57.179Z,955.46
2018-06-01T06:47:57.178Z,955.45
2018-06-01T06:48:57.176Z,955.44
2018-06-01T06:49:57.175Z,955.36
2018-06-01T06:50:57.172Z,955.35
2018-06-01T06:51:57.170Z,955.35
2018-06-01T06:52:57.169Z,955.37
2018-06-01T06:53:57.167Z,955.45
2018-06-01T06:54:57.165Z,955.44
2018-06-01T06:55:57.165Z,955.48
2018-06-01T06:56:57.163Z,955.49
2018-06-01T06:57:57.171Z,955.47
2018-06-01T06:58:57.157Z,955.46
2018-06-01T06:59:57.159Z,955.44
2018-06-01T07:00:57.156Z,955.48
2018-06-01T07:01:57.155Z,955.41
2018-06-01T07:02:57.154Z,955.41
2018-06-01T07:03:57.154Z,955.4
2018-06-01T07:04:57.158Z,955.42
2018-06-01T07:05:57.152Z,955.4
2018-06-01T07:06:57.153Z,955.39
2018-06-01T07:07:57.150Z,955.35
2018-06-01T07:08:57.149Z,955.39
2018-06-01T07:09:57.152Z,955.37
2018-06-01T07:10:57.149Z,955.35
2018-06-01T07:11:57.149Z,955.37
2018-06-01T07:12:57.147Z,955.38
2018-06-01T07:13:57.148Z,955.39
2018-06-01T07:14:57.146Z,955.39
2018-06-01T07:15:57.147Z,955.39
2018-06-01T07:16:57.147Z,955.42
2018-06-01T07:17:57.147Z,955.43
2018-06-01T07:18:57.147Z,955.42
2018-06-01T07:19:57.146Z,955.45
2018-06-01T07:20:57.146Z,955.4
2018-06-01T07:21:57.147Z,955.36
2018-06-01T07:22:57.148Z,955.3
2018-06-01T07:23:57.148Z,955.32
2018-06-01T07:24:57.148Z,955.21
2018-06-01T07:25:57.151Z,955.13
2018-06-01T07:26:57.152Z,955.12
2018-06-01T07:27:57.151Z,955.14
2018-06-01T07:28:57.152Z,955.24
2018-06-01T07:29:57.155Z,955.3
2018-06-01T07:30:57.156Z,955.28
2018-06-01T07:31:57.175Z,955.26
2018-06-01T07:32:57.159Z,955.26
2018-06-01T07:33:57.159Z,955.31
2018-06-01T07:34:57.158Z,955.3
2018-06-01T07:35:57.162Z,955.33
2018-06-01T07:36:57.164Z,955.27
2018-06-01T07:37:57.164Z,955.27
2018-06-01T07:38:57.165Z,955.26
2018-06-01T07:39:57.167Z,955.27
2018-06-01T07:40:57.167Z,955.29
2018-06-01T07:41:57.167Z,955.32
2018-06-01T07:42:57.174Z,955.34
2018-06-01T07:43:57.178Z,955.34
2018-06-01T07:44:57.173Z,955.36
2018-06-01T07:45:57.174Z,955.39
2018-06-01T07:46:57.212Z,955.4
2018-06-01T07:47:57.177Z,955.38
2018-06-01T07:48:57.179Z,955.39
2018-06-01T07:49:57.180Z,955.4
2018-06-01T07:50:57.183Z,955.39
2018-06-01T07:51:57.184Z,955.39
2018-06-01T07:52:57.187Z,955.39
2018-06-01T07:53:57.189Z,955.39
2018-06-01T07:54:57.198Z,955.38
2018-06-01T07:55:57.201Z,955.35
2018-06-01T07:56:57.420Z,955.37
2018-06-01T07:57:57.200Z,955.4
2018-06-01T07:58:57.203Z,955.37
2018-06-01T07:59:57.206Z,955.37
2018-06-01T08:00:57.232Z,955.37
2018-06-01T08:01:57.214Z,955.35
2018-06-01T08:02:57.216Z,955.37
2018-06-01T08:03:57.218Z,955.39
2018-06-01T08:04:57.222Z,955.39
2018-06-01T08:05:57.225Z,955.41
2018-06-01T08:06:57.232Z,955.43
2018-06-01T08:07:57.232Z,955.39
2018-06-01T08:08:57.240Z,955.42
2018-06-01T08:09:57.255Z,955.42
2018-06-01T08:10:57.242Z,955.4
2018-06-01T08:11:57.245Z,955.48
2018-06-01T08:12:57.249Z,955.45
2018-06-01T08:13:57.251Z,955.44
2018-06-01T08:14:57.260Z,955.41
2018-06-01T08:15:57.257Z,955.42
2018-06-01T08:16:57.262Z,955.38
2018-06-01T08:17:57.264Z,955.4
2018-06-01T08:18:57.267Z,955.37
2018-06-01T08:19:57.271Z,955.4
2018-06-01T08:20:57.273Z,955.39
2018-06-01T08:21:57.276Z,955.38
2018-06-01T08:22:57.280Z,955.34
2018-06-01T08:23:57.297Z,955.36
2018-06-01T08:24:57.286Z,955.32
2018-06-01T08:25:57.288Z,955.31
2018-06-01T08:26:57.332Z,955.31
2018-06-01T08:27:57.292Z,955.3
2018-06-01T08:28:57.296Z,955.31
2018-06-01T08:29:57.300Z,955.35
2018-06-01T08:30:57.302Z,955.34
2018-06-01T08:31:57.309Z,955.38
2018-06-01T08:32:57.308Z,955.38
2018-06-01T08:33:57.315Z,955.4
2018-06-01T08:34:57.316Z,955.4
2018-06-01T08:35:57.317Z,955.43
2018-06-01T08:36:57.322Z,955.37
2018-06-01T08:37:57.342Z,955.38
2018-06-01T08:38:57.327Z,955.39
2018-06-01T08:39:57.331Z,955.4
2018-06-01T08:40:57.333Z,955.39
2018-06-01T08:41:57.336Z,955.4
2018-06-01T08:42:57.340Z,955.37
2018-06-01T08:43:57.342Z,955.39
2018-06-01T08:44:57.346Z,955.39
2018-06-01T08:45:57.349Z,955.4
2018-06-01T08:46:57.350Z,955.43
2018-06-01T08:47:57.353Z,955.41
2018-06-01T08:48:57.358Z,955.46
2018-06-01T08:49:57.361Z,955.49
2018-06-01T08:50:57.362Z,955.4
2018-06-01T08:51:57.365Z,955.46
2018-06-01T08:52:57.590Z,955.45
2018-06-01T08:53:57.373Z,955.5
2018-06-01T08:54:57.374Z,955.45
2018-06-01T08:55:57.380Z,955.46
2018-06-01T08:56:57.378Z,955.46
2018-06-01T08:57:57.381Z,955.45
2018-06-01T08:58:57.449Z,955.49
2018-06-01T08:59:57.387Z,955.47
2018-06-01T09:00:57.389Z,955.51
2018-06-01T09:01:57.408Z,955.47
2018-06-01T09:02:57.394Z,955.51
2018-06-01T09:03:57.398Z,955.49
2018-06-01T09:04:57.398Z,955.54
2018-06-01T09:05:57.403Z,955.54
2018-06-01T09:06:57.404Z,955.48
2018-06-01T09:07:57.406Z,955.48
2018-06-01T09:08:57.407Z,955.46
2018-06-01T09:09:57.413Z,955.48
2018-06-01T09:10:57.415Z,955.42
2018-06-01T09:11:57.417Z,955.41
2018-06-01T09:12:57.418Z,955.42
2018-06-01T09:13:57.421Z,955.37
2018-06-01T09:14:57.424Z,955.35
2018-06-01T09:15:57.428Z,955.34
2018-06-01T09:16:57.430Z,955.33
2018-06-01T09:17:57.474Z,955.32
2018-06-01T09:18:57.438Z,955.3
2018-06-01T09:19:57.437Z,955.32
2018-06-01T09:20:57.439Z,955.29
2018-06-01T09:21:57.443Z,955.3
2018-06-01T09:22:57.446Z,955.28
2018-06-01T09:23:57.449Z,955.32
2018-06-01T09:24:57.452Z,955.3
2018-06-01T09:25:57.460Z,955.32
2018-06-01T09:26:57.457Z,955.28
2018-06-01T09:27:57.461Z,955.27
2018-06-01T09:28:57.464Z,955.25
2018-06-01T09:29:57.466Z,955.26
2018-06-01T09:30:57.469Z,955.28
2018-06-01T09:31:57.472Z,955.26
2018-06-01T09:32:57.476Z,955.25
2018-06-01T09:33:57.477Z,955.25
2018-06-01T09:34:57.481Z,955.22
2018-06-01T09:35:57.486Z,955.29
2018-06-01T09:36:57.487Z,955.24
2018-06-01T09:37:57.507Z,955.23
2018-06-01T09:38:57.496Z,955.27
2018-06-01T09:39:57.494Z,955.29
2018-06-01T09:40:57.501Z,955.28
2018-06-01T09:41:57.500Z,955.26
2018-06-01T09:42:57.506Z,955.25
2018-06-01T09:43:57.505Z,955.33
2018-06-01T09:44:57.507Z,955.29
2018-06-01T09:45:57.509Z,955.28
2018-06-01T09:46:57.512Z,955.3
2018-06-01T09:47:57.516Z,955.32
2018-06-01T09:48:57.518Z,955.32
2018-06-01T09:49:57.521Z,955.28
2018-06-01T09:50:57.527Z,955.31
2018-06-01T09:51:57.526Z,955.3
2018-06-01T09:52:57.532Z,955.3
2018-06-01T09:53:57.532Z,955.31
2018-06-01T09:54:57.534Z,955.3
2018-06-01T09:55:57.551Z,955.33
2018-06-01T09:56:57.539Z,955.28
2018-06-01T09:57:57.543Z,955.31
2018-06-01T09:58:57.546Z,955.31
2018-06-01T09:59:57.547Z,955.34
2018-06-01T10:00:57.550Z,955.42
2018-06-01T10:01:57.553Z,955.36
2018-06-01T10:02:57.558Z,955.4
2018-06-01T10:03:57.561Z,955.34
2018-06-01T10:04:57.562Z,955.35
2018-06-01T10:05:57.566Z,955.32
2018-06-01T10:06:57.570Z,955.35
2018-06-01T10:07:57.573Z,955.36
2018-06-01T10:08:57.573Z,955.32
2018-06-01T10:09:57.580Z,955.33
2018-06-01T10:10:57.580Z,955.29
2018-06-01T10:11:57.584Z,955.28
2018-06-01T10:12:57.588Z,955.29
2018-06-01T10:13:57.590Z,955.33
2018-06-01T10:14:57.596Z,955.3
2018-06-01T10:15:57.597Z,955.35
2018-06-01T10:16:57.609Z,955.28
2018-06-01T10:17:57.604Z,955.28
2018-06-01T10:18:57.611Z,955.28
2018-06-01T10:19:57.613Z,955.29
2018-06-01T10:20:57.617Z,955.31
2018-06-01T10:21:57.619Z,955.24
2018-06-01T10:22:57.625Z,955.24
2018-06-01T10:23:57.627Z,955.21
2018-06-01T10:24:57.629Z,955.27
2018-06-01T10:25:57.637Z,955.22
2018-06-01T10:26:57.637Z,955.27
2018-06-01T10:27:57.641Z,955.18
2018-06-01T10:28:57.645Z,955.2
2018-06-01T10:29:57.647Z,955.21
2018-06-01T10:30:57.651Z,955.18
2018-06-01T10:31:57.656Z,955.22
2018-06-01T10:32:57.716Z,955.16
2018-06-01T10:33:57.885Z,955.1
2018-06-01T10:34:57.669Z,955.16
2018-06-01T10:35:57.670Z,955.09
2018-06-01T10:36:57.673Z,955.08
2018-06-01T10:37:57.678Z,955.09
2018-06-01T10:38:57.680Z,955.01
2018-06-01T10:39:57.684Z,955.05
2018-06-01T10:40:57.686Z,955.06
2018-06-01T10:41:57.691Z,955.03
2018-06-01T10:42:57.694Z,955.05
2018-06-01T10:43:57.697Z,955.05
2018-06-01T10:44:57.700Z,955.08
2018-06-01T10:45:57.704Z,955.06
2018-06-01T10:46:57.706Z,955.11
2018-06-01T10:47:57.710Z,955.03
2018-06-01T10:48:57.712Z,955.02
2018-06-01T10:49:57.715Z,955.04
2018-06-01T10:50:57.716Z,955.03
2018-06-01T10:51:57.721Z,955.02
2018-06-01T10:52:57.725Z,955.03
2018-06-01T10:53:57.728Z,955.05
2018-06-01T10:54:57.731Z,955.05
2018-06-01T10:55:57.733Z,954.98
2018-06-01T10:56:57.741Z,955.02
2018-06-01T10:57:57.741Z,955
2018-06-01T10:58:57.742Z,955.06
2018-06-01T10:59:57.747Z,955.09
2018-06-01T11:00:57.750Z,955.11
2018-06-01T11:01:57.752Z,955.13
2018-06-01T11:02:57.755Z,955.18
2018-06-01T11:03:57.757Z,955.26
2018-06-01T11:04:57.760Z,955.26
2018-06-01T11:05:57.763Z,955.28
2018-06-01T11:06:57.772Z,955.32
2018-06-01T11:07:57.769Z,955.31
2018-06-01T11:08:57.769Z,955.36
2018-06-01T11:09:57.774Z,955.37
2018-06-01T11:10:57.776Z,955.4
2018-06-01T11:11:57.796Z,955.4
2018-06-01T11:12:57.781Z,955.38
2018-06-01T11:13:57.786Z,955.45
2018-06-01T11:14:57.786Z,955.46
2018-06-01T11:15:57.790Z,955.43
2018-06-01T11:16:57.793Z,955.42
2018-06-01T11:17:57.794Z,955.44
2018-06-01T11:18:57.798Z,955.44
2018-06-01T11:19:57.800Z,955.43
2018-06-01T11:20:57.803Z,955.41
2018-06-01T11:21:57.859Z,955.41
2018-06-01T11:22:57.807Z,955.46
2018-06-01T11:23:57.810Z,955.39
2018-06-01T11:24:57.813Z,955.43
2018-06-01T11:25:57.816Z,955.4
2018-06-01T11:26:57.872Z,955.38
2018-06-01T11:27:57.820Z,955.38
2018-06-01T11:28:57.824Z,955.35
2018-06-01T11:29:57.826Z,955.32
2018-06-01T11:30:57.845Z,955.34
2018-06-01T11:31:57.846Z,955.35
2018-06-01T11:32:57.842Z,955.33
2018-06-01T11:33:57.835Z,955.28
2018-06-01T11:34:57.857Z,955.26
2018-06-01T11:35:57.840Z,955.24
2018-06-01T11:36:57.842Z,955.27
2018-06-01T11:37:57.856Z,955.25
2018-06-01T11:38:57.849Z,955.19
2018-06-01T11:39:57.849Z,955.23
2018-06-01T11:40:57.853Z,955.24
2018-06-01T11:41:57.854Z,955.2
2018-06-01T11:42:57.859Z,955.2
2018-06-01T11:43:57.859Z,955.23
2018-06-01T11:44:57.864Z,955.23
2018-06-01T11:45:57.864Z,955.22
2018-06-01T11:46:57.867Z,955.23
2018-06-01T11:47:57.872Z,955.18
2018-06-01T11:48:57.874Z,955.25
2018-06-01T11:49:57.874Z,955.25
2018-06-01T11:50:57.878Z,955.3
2018-06-01T11:51:57.882Z,955.29
2018-06-01T11:52:57.882Z,955.3
2018-06-01T11:53:57.886Z,955.29
2018-06-01T11:54:57.892Z,955.31
2018-06-01T11:55:57.890Z,955.34
2018-06-01T11:56:57.893Z,955.38
2018-06-01T11:57:57.896Z,955.31
2018-06-01T11:58:57.898Z,955.26
2018-06-01T11:59:57.901Z,955.24
2018-06-01T12:00:57.903Z,955.27
2018-06-01T12:01:57.907Z,955.18
2018-06-01T12:02:57.910Z,955.21
2018-06-01T12:03:57.916Z,955.1
2018-06-01T12:04:57.916Z,955.2
2018-06-01T12:05:57.918Z,955.22
2018-06-01T12:06:57.923Z,955.21
2018-06-01T12:07:57.927Z,955.18
2018-06-01T12:08:57.927Z,955.15
2018-06-01T12:09:57.930Z,955.18
2018-06-01T12:10:58.035Z,955.18
2018-06-01T12:11:57.938Z,955.15
2018-06-01T12:12:57.940Z,955.26
2018-06-01T12:13:57.948Z,955.24
2018-06-01T12:14:57.947Z,955.17
2018-06-01T12:15:57.951Z,955.15
2018-06-01T12:16:57.955Z,955.13
2018-06-01T12:17:57.959Z,955.13
2018-06-01T12:18:57.958Z,955.2
2018-06-01T12:19:57.963Z,955.11
2018-06-01T12:20:57.967Z,955.09
2018-06-01T12:21:57.976Z,955.1
2018-06-01T12:22:57.974Z,955.12
2018-06-01T12:23:57.976Z,955.08
2018-06-01T12:24:57.982Z,955.02
2018-06-01T12:25:58.002Z,954.99
2018-06-01T12:26:57.989Z,954.98
2018-06-01T12:27:57.991Z,954.98
2018-06-01T12:28:57.994Z,955.01
2018-06-01T12:29:57.996Z,955.05
2018-06-01T12:30:58.003Z,955.03
2018-06-01T12:31:58.004Z,955.04